Terminal Aerodrome Forecast
Issued by NWS

Home | Current Version | Previous Version | Graphics & Text | Print | Product List | Glossary On
Versions: 1 2 3 4 5 6 7 8 9 10 11 12
000
FTUS43 KMPX 012334
TAFRWF
TAF
KRWF 012334Z 0200/0224 13009KT P6SM SCT250
     FM020500 15004KT P6SM FEW050 BKN100
     FM021200 18009KT P6SM FEW040 BKN150=

USA.gov is the U.S. government's official web portal to all federal, state and local government web resources and services.